DAL2590 KATL-KBWI
Flight info
| Callsign | DAL2590 |
|---|---|
| Flight time | 1h 22m |
| Altitude | 35000 |
| Route | JACCC2 KELLN Q58 PEETT THHMP RAVNN8 |
| Aircraft | A321/M-SDE3FGHIRWY/LB1 |
Departure
| Time | 2026-05-04 18:15 |
|---|---|
| Airport | Hartsfield Jackson Atlanta International Airport (KATL) |
Arrival
| Time | 2026-05-04 19:37 |
|---|---|
| Airport | Baltimore/Washington International Thurgood Marshall Airport (KBWI) |
| Time | Latitude | Longitude | Altitude | Speed | Heading |
|---|---|---|---|---|---|
| 2026-05-04 17:46 | 33.63833 | -84.42514 | 1007 ft | 0 kts | 269° |
| 2026-05-04 18:04 | 33.63833 | -84.42501 | 1025 ft | 3 kts | 266° |
| 2026-05-04 18:04 | 33.63835 | -84.42477 | 1004 ft | 3 kts | 258° |
| 2026-05-04 18:04 | 33.63849 | -84.42432 | 1006 ft | 3 kts | 230° |
| 2026-05-04 18:05 | 33.63863 | -84.42417 | 1006 ft | 3 kts | 206° |
| 2026-05-04 18:05 | 33.63872 | -84.42412 | 1006 ft | 0 kts | 197° |
| 2026-05-04 18:07 | 33.63860 | -84.42416 | 1006 ft | 5 kts | 195° |
| 2026-05-04 18:08 | 33.63822 | -84.42417 | 1006 ft | 6 kts | 181° |
| 2026-05-04 18:08 | 33.63774 | -84.42418 | 1006 ft | 8 kts | 180° |
| 2026-05-04 18:08 | 33.63716 | -84.42418 | 1006 ft | 9 kts | 179° |
| 2026-05-04 18:08 | 33.63646 | -84.42417 | 1007 ft | 11 kts | 179° |
| 2026-05-04 18:09 | 33.63584 | -84.42314 | 1007 ft | 7 kts | 95° |
| 2026-05-04 18:09 | 33.63583 | -84.42169 | 1007 ft | 14 kts | 89° |
| 2026-05-04 18:10 | 33.63582 | -84.42029 | 1007 ft | 18 kts | 91° |
| 2026-05-04 18:10 | 33.63581 | -84.41882 | 1006 ft | 17 kts | 90° |
| 2026-05-04 18:10 | 33.63582 | -84.41746 | 1006 ft | 16 kts | 92° |
| 2026-05-04 18:10 | 33.63584 | -84.41622 | 1006 ft | 14 kts | 92° |
| 2026-05-04 18:11 | 33.63581 | -84.41509 | 1005 ft | 13 kts | 89° |
| 2026-05-04 18:11 | 33.63581 | -84.41412 | 1005 ft | 10 kts | 90° |
| 2026-05-04 18:11 | 33.63581 | -84.41308 | 1006 ft | 16 kts | 90° |
| 2026-05-04 18:11 | 33.63581 | -84.41216 | 1006 ft | 15 kts | 90° |
| 2026-05-04 18:12 | 33.63580 | -84.41112 | 1006 ft | 12 kts | 90° |
| 2026-05-04 18:12 | 33.63580 | -84.41003 | 1006 ft | 10 kts | 90° |
| 2026-05-04 18:12 | 33.63571 | -84.40929 | 1006 ft | 0 kts | 127° |
| 2026-05-04 18:13 | 33.63474 | -84.40934 | 1007 ft | 10 kts | 238° |
| 2026-05-04 18:14 | 33.63470 | -84.40991 | 1007 ft | 7 kts | 269° |
| 2026-05-04 18:14 | 33.63471 | -84.41221 | 1005 ft | 60 kts | 270° |
| 2026-05-04 18:14 | 33.63469 | -84.41983 | 1007 ft | 120 kts | 270° |
| 2026-05-04 18:15 | 33.63468 | -84.44682 | 1225 ft | 185 kts | 270° |
| 2026-05-04 18:15 | 33.63309 | -84.47734 | 2572 ft | 184 kts | 249° |
| 2026-05-04 18:15 | 33.62713 | -84.49129 | 2989 ft | 196 kts | 241° |
| 2026-05-04 18:16 | 33.62045 | -84.50644 | 3228 ft | 215 kts | 242° |
| 2026-05-04 18:16 | 33.61336 | -84.52327 | 3401 ft | 240 kts | 243° |
| 2026-05-04 18:16 | 33.60549 | -84.54233 | 3695 ft | 263 kts | 242° |
| 2026-05-04 18:17 | 33.58559 | -84.57901 | 5288 ft | 268 kts | 213° |
| 2026-05-04 18:17 | 33.56799 | -84.58583 | 6058 ft | 270 kts | 186° |
| 2026-05-04 18:17 | 33.53018 | -84.58651 | 7619 ft | 274 kts | 179° |
| 2026-05-04 18:18 | 33.51104 | -84.58586 | 8390 ft | 275 kts | 179° |
| 2026-05-04 18:18 | 33.49183 | -84.58496 | 9150 ft | 278 kts | 173° |
| 2026-05-04 18:18 | 33.47375 | -84.57700 | 9898 ft | 282 kts | 145° |
| 2026-05-04 18:18 | 33.46083 | -84.55926 | 10495 ft | 289 kts | 116° |
| 2026-05-04 18:19 | 33.45570 | -84.50889 | 10986 ft | 329 kts | 92° |
| 2026-05-04 18:19 | 33.45571 | -84.48094 | 11122 ft | 350 kts | 91° |
| 2026-05-04 18:19 | 33.45592 | -84.45130 | 11600 ft | 360 kts | 91° |
| 2026-05-04 18:20 | 33.45611 | -84.42113 | 12173 ft | 366 kts | 90° |
| 2026-05-04 18:20 | 33.45619 | -84.39040 | 12769 ft | 371 kts | 90° |
| 2026-05-04 18:20 | 33.45700 | -84.35936 | 13322 ft | 376 kts | 83° |
| 2026-05-04 18:20 | 33.46227 | -84.32851 | 13882 ft | 381 kts | 72° |
| 2026-05-04 18:21 | 33.47245 | -84.29904 | 14385 ft | 384 kts | 61° |
| 2026-05-04 18:21 | 33.48521 | -84.27077 | 14910 ft | 388 kts | 60° |
| 2026-05-04 18:21 | 33.49809 | -84.24222 | 15456 ft | 391 kts | 60° |
| 2026-05-04 18:21 | 33.51104 | -84.21339 | 16000 ft | 395 kts | 60° |
| 2026-05-04 18:22 | 33.52405 | -84.18426 | 16530 ft | 398 kts | 60° |
| 2026-05-04 18:22 | 33.53719 | -84.15481 | 17068 ft | 402 kts | 60° |
| 2026-05-04 18:22 | 33.55040 | -84.12511 | 17573 ft | 406 kts | 60° |
| 2026-05-04 18:22 | 33.56371 | -84.09512 | 18083 ft | 409 kts | 60° |
| 2026-05-04 18:23 | 33.57709 | -84.06489 | 18547 ft | 413 kts | 60° |
| 2026-05-04 18:23 | 33.59061 | -84.03436 | 18974 ft | 416 kts | 59° |
| 2026-05-04 18:23 | 33.60426 | -84.00363 | 19418 ft | 419 kts | 59° |
| 2026-05-04 18:23 | 33.61800 | -83.97269 | 19848 ft | 422 kts | 59° |
| 2026-05-04 18:24 | 33.63182 | -83.94161 | 20267 ft | 425 kts | 59° |
| 2026-05-04 18:24 | 33.64582 | -83.91015 | 20695 ft | 428 kts | 59° |
| 2026-05-04 18:24 | 33.65988 | -83.87855 | 21111 ft | 431 kts | 59° |
| 2026-05-04 18:24 | 33.67403 | -83.84670 | 21530 ft | 434 kts | 59° |
| 2026-05-04 18:25 | 33.68824 | -83.81456 | 21944 ft | 437 kts | 59° |
| 2026-05-04 18:25 | 33.70248 | -83.78218 | 22349 ft | 440 kts | 59° |
| 2026-05-04 18:25 | 33.71679 | -83.74957 | 22747 ft | 443 kts | 59° |
| 2026-05-04 18:25 | 33.73119 | -83.71677 | 23136 ft | 446 kts | 59° |
| 2026-05-04 18:26 | 33.74575 | -83.68370 | 23541 ft | 449 kts | 59° |
| 2026-05-04 18:26 | 33.76045 | -83.65049 | 23882 ft | 451 kts | 58° |
| 2026-05-04 18:26 | 33.77610 | -83.61773 | 24225 ft | 453 kts | 55° |
| 2026-05-04 18:26 | 33.79285 | -83.58558 | 24545 ft | 455 kts | 53° |
| 2026-05-04 18:27 | 33.81032 | -83.55384 | 24871 ft | 457 kts | 52° |
| 2026-05-04 18:27 | 33.82819 | -83.52207 | 25192 ft | 459 kts | 52° |
| 2026-05-04 18:27 | 33.84585 | -83.49053 | 25490 ft | 462 kts | 52° |
| 2026-05-04 18:27 | 33.86364 | -83.45823 | 25801 ft | 464 kts | 53° |
| 2026-05-04 18:28 | 33.88131 | -83.42558 | 26113 ft | 467 kts | 53° |
| 2026-05-04 18:28 | 33.89892 | -83.39258 | 26423 ft | 470 kts | 53° |
| 2026-05-04 18:28 | 33.91650 | -83.35934 | 26737 ft | 472 kts | 53° |
| 2026-05-04 18:28 | 33.93416 | -83.32584 | 27032 ft | 475 kts | 53° |
| 2026-05-04 18:29 | 33.95195 | -83.29219 | 27313 ft | 477 kts | 53° |
| 2026-05-04 18:29 | 33.96985 | -83.25846 | 27619 ft | 479 kts | 53° |
| 2026-05-04 18:29 | 33.98789 | -83.22455 | 27904 ft | 482 kts | 53° |
| 2026-05-04 18:29 | 34.00603 | -83.19047 | 28183 ft | 484 kts | 53° |
| 2026-05-04 18:30 | 34.04246 | -83.12174 | 28712 ft | 489 kts | 53° |
| 2026-05-04 18:30 | 34.06076 | -83.08712 | 28977 ft | 491 kts | 53° |
| 2026-05-04 18:30 | 34.07913 | -83.05229 | 29250 ft | 493 kts | 53° |
| 2026-05-04 18:31 | 34.09761 | -83.01729 | 29516 ft | 495 kts | 53° |
| 2026-05-04 18:31 | 34.11613 | -82.98219 | 29781 ft | 497 kts | 53° |
| 2026-05-04 18:31 | 34.13471 | -82.94694 | 30127 ft | 497 kts | 53° |
| 2026-05-04 18:31 | 34.15321 | -82.91169 | 30449 ft | 497 kts | 53° |
| 2026-05-04 18:32 | 34.17165 | -82.87642 | 30767 ft | 496 kts | 54° |
| 2026-05-04 18:32 | 34.19001 | -82.84119 | 31101 ft | 496 kts | 54° |
| 2026-05-04 18:32 | 34.20834 | -82.80595 | 31439 ft | 495 kts | 54° |
| 2026-05-04 18:32 | 34.22661 | -82.77076 | 31769 ft | 494 kts | 54° |
| 2026-05-04 18:33 | 34.24485 | -82.73558 | 32102 ft | 494 kts | 54° |
| 2026-05-04 18:33 | 34.26310 | -82.70042 | 32425 ft | 493 kts | 54° |
| 2026-05-04 18:33 | 34.28135 | -82.66533 | 32768 ft | 492 kts | 54° |
| 2026-05-04 18:33 | 34.29957 | -82.63035 | 33094 ft | 492 kts | 54° |
| 2026-05-04 18:34 | 34.31781 | -82.59536 | 33426 ft | 491 kts | 54° |
| 2026-05-04 18:34 | 34.33596 | -82.56045 | 33754 ft | 490 kts | 54° |
| 2026-05-04 18:34 | 34.35406 | -82.52547 | 34078 ft | 490 kts | 54° |
| 2026-05-04 18:34 | 34.37187 | -82.49099 | 34331 ft | 490 kts | 54° |
| 2026-05-04 18:35 | 34.38993 | -82.45599 | 34578 ft | 490 kts | 54° |
| 2026-05-04 18:35 | 34.40790 | -82.42104 | 34824 ft | 490 kts | 54° |
| 2026-05-04 18:35 | 34.42594 | -82.38595 | 35037 ft | 490 kts | 54° |
| 2026-05-04 18:36 | 34.46145 | -82.31568 | 35096 ft | 488 kts | 56° |
| 2026-05-04 18:36 | 34.49433 | -82.24376 | 35086 ft | 488 kts | 58° |
| 2026-05-04 18:37 | 34.52619 | -82.17116 | 35090 ft | 487 kts | 58° |
| 2026-05-04 18:37 | 34.56060 | -82.10059 | 35089 ft | 485 kts | 53° |
| 2026-05-04 18:38 | 34.59767 | -82.03233 | 35091 ft | 484 kts | 52° |
| 2026-05-04 18:38 | 34.63466 | -81.96400 | 35091 ft | 485 kts | 53° |
| 2026-05-04 18:39 | 34.67077 | -81.89482 | 35089 ft | 485 kts | 54° |
| 2026-05-04 18:39 | 34.70650 | -81.82533 | 35095 ft | 485 kts | 54° |
| 2026-05-04 18:40 | 34.74231 | -81.75585 | 35087 ft | 485 kts | 54° |
| 2026-05-04 18:40 | 34.77826 | -81.68642 | 35086 ft | 485 kts | 54° |
| 2026-05-04 18:41 | 34.81418 | -81.61702 | 35090 ft | 485 kts | 54° |
| 2026-05-04 18:41 | 34.84999 | -81.54750 | 35093 ft | 485 kts | 54° |
| 2026-05-04 18:42 | 34.88576 | -81.47787 | 35093 ft | 485 kts | 54° |
| 2026-05-04 18:42 | 34.92154 | -81.40832 | 35095 ft | 485 kts | 54° |
| 2026-05-04 18:43 | 34.95727 | -81.33859 | 35092 ft | 485 kts | 54° |
| 2026-05-04 18:43 | 34.99288 | -81.26881 | 35090 ft | 485 kts | 54° |
| 2026-05-04 18:44 | 35.02843 | -81.19897 | 35083 ft | 485 kts | 54° |
| 2026-05-04 18:44 | 35.06398 | -81.12915 | 35083 ft | 484 kts | 54° |
| 2026-05-04 18:45 | 35.09953 | -81.05923 | 35082 ft | 484 kts | 54° |
| 2026-05-04 18:45 | 35.13503 | -80.98926 | 35083 ft | 484 kts | 54° |
| 2026-05-04 18:46 | 35.17052 | -80.91927 | 35082 ft | 485 kts | 54° |
| 2026-05-04 18:46 | 35.20592 | -80.84918 | 35082 ft | 485 kts | 54° |
| 2026-05-04 18:47 | 35.24133 | -80.77901 | 35083 ft | 485 kts | 54° |
| 2026-05-04 18:47 | 35.27663 | -80.70874 | 35109 ft | 485 kts | 54° |
| 2026-05-04 18:48 | 35.31196 | -80.63839 | 35109 ft | 485 kts | 54° |
| 2026-05-04 18:48 | 35.34702 | -80.56846 | 35101 ft | 485 kts | 54° |
| 2026-05-04 18:49 | 35.38227 | -80.49800 | 35086 ft | 485 kts | 54° |
| 2026-05-04 18:49 | 35.41748 | -80.42737 | 35080 ft | 485 kts | 54° |
| 2026-05-04 18:50 | 35.44693 | -80.36816 | 35097 ft | 486 kts | 54° |
| 2026-05-04 18:50 | 35.48207 | -80.29741 | 35093 ft | 486 kts | 54° |
| 2026-05-04 18:51 | 35.51754 | -80.22681 | 35100 ft | 485 kts | 53° |
| 2026-05-04 18:51 | 35.55579 | -80.15880 | 35092 ft | 483 kts | 50° |
| 2026-05-04 18:52 | 35.59543 | -80.09216 | 35071 ft | 483 kts | 49° |
| 2026-05-04 18:52 | 35.63467 | -80.02507 | 35085 ft | 484 kts | 50° |
| 2026-05-04 18:53 | 35.67322 | -79.95721 | 35085 ft | 484 kts | 51° |
| 2026-05-04 18:53 | 35.71155 | -79.88914 | 35083 ft | 484 kts | 51° |
| 2026-05-04 18:54 | 35.75004 | -79.82106 | 35077 ft | 484 kts | 51° |
| 2026-05-04 18:54 | 35.78868 | -79.75296 | 35070 ft | 485 kts | 51° |
| 2026-05-04 18:55 | 35.82730 | -79.68475 | 35060 ft | 485 kts | 51° |
| 2026-05-04 18:55 | 35.88519 | -79.58215 | 35063 ft | 486 kts | 51° |
| 2026-05-04 18:56 | 35.92313 | -79.51453 | 34831 ft | 471 kts | 51° |
| 2026-05-04 18:56 | 35.94160 | -79.48146 | 34399 ft | 467 kts | 51° |
| 2026-05-04 18:56 | 35.96005 | -79.44848 | 33885 ft | 466 kts | 50° |
| 2026-05-04 18:57 | 35.97846 | -79.41562 | 33257 ft | 466 kts | 50° |
| 2026-05-04 18:57 | 35.99694 | -79.38270 | 32610 ft | 467 kts | 50° |
| 2026-05-04 18:57 | 36.01541 | -79.34978 | 31951 ft | 468 kts | 51° |
| 2026-05-04 18:57 | 36.03395 | -79.31665 | 31290 ft | 469 kts | 51° |
| 2026-05-04 18:58 | 36.05186 | -79.28461 | 30653 ft | 471 kts | 51° |
| 2026-05-04 18:58 | 36.07047 | -79.25128 | 29982 ft | 472 kts | 51° |
| 2026-05-04 18:58 | 36.08913 | -79.21777 | 29274 ft | 472 kts | 51° |
| 2026-05-04 18:58 | 36.10770 | -79.18432 | 29017 ft | 472 kts | 51° |
| 2026-05-04 18:59 | 36.14494 | -79.11710 | 29052 ft | 474 kts | 51° |
| 2026-05-04 18:59 | 36.18429 | -79.05201 | 29062 ft | 469 kts | 41° |
| 2026-05-04 19:00 | 36.22943 | -78.99364 | 29064 ft | 469 kts | 41° |
| 2026-05-04 19:00 | 36.27460 | -78.93520 | 29067 ft | 470 kts | 41° |
| 2026-05-04 19:01 | 36.31974 | -78.87662 | 29065 ft | 470 kts | 41° |
| 2026-05-04 19:01 | 36.36488 | -78.81805 | 29054 ft | 470 kts | 41° |
| 2026-05-04 19:02 | 36.40977 | -78.75977 | 29042 ft | 470 kts | 41° |
| 2026-05-04 19:02 | 36.45485 | -78.70094 | 29044 ft | 469 kts | 41° |
| 2026-05-04 19:03 | 36.49977 | -78.64219 | 29042 ft | 469 kts | 41° |
| 2026-05-04 19:03 | 36.54477 | -78.58347 | 29034 ft | 469 kts | 41° |
| 2026-05-04 19:04 | 36.58961 | -78.52469 | 29030 ft | 468 kts | 41° |
| 2026-05-04 19:04 | 36.63443 | -78.46579 | 29032 ft | 468 kts | 41° |
| 2026-05-04 19:05 | 36.67913 | -78.40693 | 29038 ft | 467 kts | 41° |
| 2026-05-04 19:05 | 36.72376 | -78.34813 | 29049 ft | 467 kts | 41° |
| 2026-05-04 19:06 | 36.76834 | -78.28929 | 29048 ft | 466 kts | 40° |
| 2026-05-04 19:06 | 36.81280 | -78.23045 | 29080 ft | 465 kts | 41° |
| 2026-05-04 19:07 | 36.85717 | -78.17169 | 29080 ft | 464 kts | 41° |
| 2026-05-04 19:07 | 36.90142 | -78.11296 | 29026 ft | 464 kts | 41° |
| 2026-05-04 19:08 | 36.94563 | -78.05421 | 29022 ft | 463 kts | 41° |
| 2026-05-04 19:08 | 36.98964 | -77.99554 | 29023 ft | 462 kts | 41° |
| 2026-05-04 19:09 | 37.03357 | -77.93676 | 29023 ft | 462 kts | 41° |
| 2026-05-04 19:09 | 37.07715 | -77.87847 | 29032 ft | 461 kts | 41° |
| 2026-05-04 19:10 | 37.12088 | -77.81998 | 29028 ft | 460 kts | 41° |
| 2026-05-04 19:10 | 37.16444 | -77.76159 | 29031 ft | 459 kts | 41° |
| 2026-05-04 19:11 | 37.20806 | -77.70298 | 29031 ft | 458 kts | 41° |
| 2026-05-04 19:11 | 37.25148 | -77.64443 | 29037 ft | 458 kts | 41° |
| 2026-05-04 19:12 | 37.31587 | -77.55745 | 28556 ft | 445 kts | 40° |
| 2026-05-04 19:12 | 37.33685 | -77.52909 | 28283 ft | 442 kts | 40° |
| 2026-05-04 19:13 | 37.35772 | -77.50089 | 28018 ft | 440 kts | 40° |
| 2026-05-04 19:13 | 37.37848 | -77.47283 | 27753 ft | 438 kts | 40° |
| 2026-05-04 19:13 | 37.39917 | -77.44478 | 27488 ft | 436 kts | 40° |
| 2026-05-04 19:13 | 37.41968 | -77.41688 | 27229 ft | 434 kts | 40° |
| 2026-05-04 19:14 | 37.44019 | -77.38892 | 26964 ft | 432 kts | 41° |
| 2026-05-04 19:14 | 37.46070 | -77.36154 | 26713 ft | 427 kts | 37° |
| 2026-05-04 19:14 | 37.48354 | -77.33830 | 26453 ft | 417 kts | 26° |
| 2026-05-04 19:14 | 37.50848 | -77.32089 | 26209 ft | 406 kts | 16° |
| 2026-05-04 19:15 | 37.53472 | -77.30924 | 25898 ft | 393 kts | 7° |
| 2026-05-04 19:15 | 37.56114 | -77.30244 | 25459 ft | 385 kts | 4° |
| 2026-05-04 19:15 | 37.58734 | -77.29623 | 25022 ft | 381 kts | 4° |
| 2026-05-04 19:15 | 37.61329 | -77.28999 | 24597 ft | 378 kts | 5° |
| 2026-05-04 19:16 | 37.63897 | -77.28377 | 24179 ft | 374 kts | 5° |
| 2026-05-04 19:16 | 37.66445 | -77.27761 | 23769 ft | 371 kts | 5° |
| 2026-05-04 19:16 | 37.68968 | -77.27153 | 23333 ft | 368 kts | 5° |
| 2026-05-04 19:16 | 37.71470 | -77.26556 | 23010 ft | 366 kts | 5° |
| 2026-05-04 19:17 | 37.74009 | -77.25936 | 23017 ft | 376 kts | 6° |
| 2026-05-04 19:17 | 37.76591 | -77.25283 | 23015 ft | 380 kts | 6° |
| 2026-05-04 19:17 | 37.79185 | -77.24607 | 23013 ft | 380 kts | 7° |
| 2026-05-04 19:17 | 37.81776 | -77.23924 | 23014 ft | 381 kts | 7° |
| 2026-05-04 19:18 | 37.84370 | -77.23237 | 23011 ft | 381 kts | 7° |
| 2026-05-04 19:18 | 37.86964 | -77.22547 | 23007 ft | 381 kts | 7° |
| 2026-05-04 19:18 | 37.89556 | -77.21863 | 23008 ft | 381 kts | 7° |
| 2026-05-04 19:18 | 37.92154 | -77.21186 | 22782 ft | 382 kts | 7° |
| 2026-05-04 19:19 | 37.94743 | -77.20514 | 22425 ft | 378 kts | 7° |
| 2026-05-04 19:19 | 37.97311 | -77.19848 | 22114 ft | 376 kts | 7° |
| 2026-05-04 19:19 | 37.99875 | -77.19182 | 21796 ft | 375 kts | 7° |
| 2026-05-04 19:19 | 38.02420 | -77.18519 | 21480 ft | 373 kts | 7° |
| 2026-05-04 19:20 | 38.04961 | -77.17853 | 21165 ft | 372 kts | 7° |
| 2026-05-04 19:20 | 38.07492 | -77.17192 | 20810 ft | 371 kts | 7° |
| 2026-05-04 19:20 | 38.10023 | -77.16531 | 20313 ft | 369 kts | 7° |
| 2026-05-04 19:20 | 38.12529 | -77.15879 | 19856 ft | 367 kts | 7° |
| 2026-05-04 19:21 | 38.15021 | -77.15226 | 19400 ft | 365 kts | 7° |
| 2026-05-04 19:21 | 38.17474 | -77.14582 | 18955 ft | 363 kts | 7° |
| 2026-05-04 19:21 | 38.19973 | -77.13927 | 18498 ft | 362 kts | 7° |
| 2026-05-04 19:21 | 38.22435 | -77.13282 | 18017 ft | 360 kts | 7° |
| 2026-05-04 19:22 | 38.24850 | -77.12649 | 17602 ft | 358 kts | 7° |
| 2026-05-04 19:22 | 38.27310 | -77.12003 | 17193 ft | 355 kts | 7° |
| 2026-05-04 19:22 | 38.29693 | -77.11377 | 16800 ft | 354 kts | 7° |
| 2026-05-04 19:22 | 38.32102 | -77.10746 | 16399 ft | 352 kts | 7° |
| 2026-05-04 19:23 | 38.34495 | -77.10112 | 16048 ft | 351 kts | 9° |
| 2026-05-04 19:23 | 38.36812 | -77.09109 | 15656 ft | 355 kts | 21° |
| 2026-05-04 19:23 | 38.38945 | -77.07506 | 15246 ft | 358 kts | 31° |
| 2026-05-04 19:23 | 38.40983 | -77.05682 | 14841 ft | 357 kts | 31° |
| 2026-05-04 19:24 | 38.43012 | -77.03865 | 14436 ft | 356 kts | 31° |
| 2026-05-04 19:24 | 38.45034 | -77.02058 | 14032 ft | 355 kts | 31° |
| 2026-05-04 19:24 | 38.47055 | -77.00255 | 13616 ft | 353 kts | 31° |
| 2026-05-04 19:24 | 38.49063 | -76.98463 | 13199 ft | 351 kts | 31° |
| 2026-05-04 19:25 | 38.51058 | -76.96684 | 12787 ft | 349 kts | 31° |
| 2026-05-04 19:25 | 38.53045 | -76.94912 | 12396 ft | 347 kts | 31° |
| 2026-05-04 19:25 | 38.54999 | -76.93128 | 12002 ft | 345 kts | 35° |
| 2026-05-04 19:25 | 38.56791 | -76.91070 | 11498 ft | 349 kts | 39° |
| 2026-05-04 19:26 | 38.58556 | -76.88965 | 11080 ft | 346 kts | 40° |
| 2026-05-04 19:26 | 38.60314 | -76.86856 | 10700 ft | 343 kts | 40° |
| 2026-05-04 19:26 | 38.62025 | -76.84794 | 10559 ft | 332 kts | 40° |
| 2026-05-04 19:26 | 38.63678 | -76.82802 | 10433 ft | 321 kts | 40° |
| 2026-05-04 19:27 | 38.65275 | -76.80878 | 10226 ft | 310 kts | 39° |
| 2026-05-04 19:27 | 38.66833 | -76.79000 | 9788 ft | 305 kts | 39° |
| 2026-05-04 19:27 | 38.68361 | -76.77161 | 9422 ft | 299 kts | 39° |
| 2026-05-04 19:27 | 38.69853 | -76.75355 | 9132 ft | 299 kts | 43° |
| 2026-05-04 19:28 | 38.71142 | -76.73224 | 8847 ft | 301 kts | 57° |
| 2026-05-04 19:28 | 38.72163 | -76.70880 | 8563 ft | 301 kts | 58° |
| 2026-05-04 19:28 | 38.73182 | -76.68538 | 8290 ft | 300 kts | 58° |
| 2026-05-04 19:28 | 38.74197 | -76.66208 | 8013 ft | 299 kts | 59° |
| 2026-05-04 19:29 | 38.75205 | -76.63887 | 7738 ft | 298 kts | 59° |
| 2026-05-04 19:29 | 38.75885 | -76.62322 | 7528 ft | 297 kts | 59° |
| 2026-05-04 19:29 | 38.76980 | -76.60090 | 7268 ft | 294 kts | 48° |
| 2026-05-04 19:29 | 38.78464 | -76.58331 | 6993 ft | 289 kts | 31° |
| 2026-05-04 19:30 | 38.80233 | -76.57185 | 6703 ft | 282 kts | 14° |
| 2026-05-04 19:30 | 38.82112 | -76.56611 | 6427 ft | 275 kts | 7° |
| 2026-05-04 19:30 | 38.83975 | -76.56113 | 6130 ft | 272 kts | 7° |
| 2026-05-04 19:30 | 38.85795 | -76.55955 | 5869 ft | 261 kts | 352° |
| 2026-05-04 19:31 | 38.87594 | -76.56090 | 5604 ft | 257 kts | 353° |
| 2026-05-04 19:31 | 38.89362 | -76.56212 | 5354 ft | 249 kts | 353° |
| 2026-05-04 19:31 | 38.91065 | -76.56324 | 5130 ft | 242 kts | 353° |
| 2026-05-04 19:31 | 38.92734 | -76.56435 | 4856 ft | 238 kts | 353° |
| 2026-05-04 19:32 | 38.94376 | -76.56540 | 4561 ft | 236 kts | 354° |
| 2026-05-04 19:32 | 38.96007 | -76.56637 | 4272 ft | 232 kts | 354° |
| 2026-05-04 19:32 | 38.97601 | -76.56729 | 4013 ft | 228 kts | 354° |
| 2026-05-04 19:32 | 38.99153 | -76.56818 | 3757 ft | 218 kts | 353° |
| 2026-05-04 19:33 | 39.00655 | -76.56906 | 3470 ft | 206 kts | 353° |
| 2026-05-04 19:33 | 39.02059 | -76.56992 | 3223 ft | 198 kts | 353° |
| 2026-05-04 19:33 | 39.03390 | -76.57076 | 3021 ft | 190 kts | 353° |
| 2026-05-04 19:33 | 39.04691 | -76.57157 | 2766 ft | 186 kts | 353° |
| 2026-05-04 19:34 | 39.05953 | -76.57238 | 2595 ft | 176 kts | 352° |
| 2026-05-04 19:34 | 39.07097 | -76.57666 | 2391 ft | 167 kts | 327° |
| 2026-05-04 19:34 | 39.08017 | -76.58470 | 2211 ft | 155 kts | 320° |
| 2026-05-04 19:34 | 39.08889 | -76.59276 | 1983 ft | 153 kts | 320° |
| 2026-05-04 19:35 | 39.09764 | -76.60085 | 1800 ft | 153 kts | 320° |
| 2026-05-04 19:35 | 39.10632 | -76.60885 | 1602 ft | 153 kts | 320° |
| 2026-05-04 19:35 | 39.11490 | -76.61655 | 1417 ft | 152 kts | 319° |
| 2026-05-04 19:35 | 39.12336 | -76.62450 | 1266 ft | 149 kts | 319° |
| 2026-05-04 19:36 | 39.13182 | -76.63230 | 1004 ft | 150 kts | 319° |
| 2026-05-04 19:36 | 39.14031 | -76.64016 | 781 ft | 149 kts | 320° |
| 2026-05-04 19:36 | 39.14887 | -76.64804 | 552 ft | 154 kts | 320° |
| 2026-05-04 19:36 | 39.15739 | -76.65594 | 348 ft | 149 kts | 319° |
| 2026-05-04 19:37 | 39.16584 | -76.66384 | 176 ft | 149 kts | 320° |
| 2026-05-04 19:37 | 39.17356 | -76.67115 | 150 ft | 116 kts | 322° |
| 2026-05-04 19:37 | 39.17854 | -76.67577 | 145 ft | 63 kts | 323° |
| 2026-05-04 19:37 | 39.18064 | -76.67762 | 146 ft | 17 kts | 335° |
| 2026-05-04 19:38 | 39.18094 | -76.67770 | 145 ft | 6 kts | 349° |
| 2026-05-04 19:38 | 39.18157 | -76.67722 | 145 ft | 8 kts | 57° |
| 2026-05-04 19:38 | 39.18151 | -76.67685 | 146 ft | 2 kts | 121° |
| 2026-05-04 19:38 | 39.18144 | -76.67671 | 146 ft | 4 kts | 129° |
| 2026-05-04 19:39 | 39.18090 | -76.67613 | 147 ft | 16 kts | 146° |
| 2026-05-04 19:39 | 39.17976 | -76.67508 | 148 ft | 15 kts | 144° |
| 2026-05-04 19:39 | 39.17938 | -76.67472 | 148 ft | 6 kts | 143° |
| 2026-05-04 19:39 | 39.17900 | -76.67435 | 148 ft | 11 kts | 143° |
| 2026-05-04 19:40 | 39.17826 | -76.67366 | 149 ft | 14 kts | 144° |
| 2026-05-04 19:40 | 39.17720 | -76.67267 | 150 ft | 22 kts | 143° |
| 2026-05-04 19:40 | 39.17603 | -76.67157 | 151 ft | 20 kts | 145° |
| 2026-05-04 19:40 | 39.17501 | -76.67044 | 153 ft | 19 kts | 125° |
| 2026-05-04 19:41 | 39.17468 | -76.66895 | 154 ft | 16 kts | 97° |
| 2026-05-04 19:41 | 39.17459 | -76.66751 | 153 ft | 17 kts | 94° |
| 2026-05-04 19:41 | 39.17450 | -76.66605 | 154 ft | 16 kts | 95° |
| 2026-05-04 19:41 | 39.17473 | -76.66479 | 154 ft | 14 kts | 44° |
| 2026-05-04 19:42 | 39.17552 | -76.66412 | 153 ft | 13 kts | 33° |
| 2026-05-04 19:42 | 39.17623 | -76.66351 | 154 ft | 11 kts | 33° |
| 2026-05-04 19:42 | 39.17688 | -76.66295 | 154 ft | 12 kts | 33° |
| 2026-05-04 19:42 | 39.17759 | -76.66235 | 154 ft | 13 kts | 33° |
| 2026-05-04 19:43 | 39.17838 | -76.66168 | 155 ft | 15 kts | 33° |
| 2026-05-04 19:43 | 39.17926 | -76.66095 | 153 ft | 15 kts | 32° |
| 2026-05-04 19:43 | 39.18012 | -76.66039 | 154 ft | 13 kts | 1° |
| 2026-05-04 19:43 | 39.18085 | -76.66085 | 155 ft | 11 kts | 327° |
| 2026-05-04 19:44 | 39.18142 | -76.66134 | 155 ft | 9 kts | 324° |
| 2026-05-04 19:44 | 39.18191 | -76.66180 | 155 ft | 10 kts | 324° |
| 2026-05-04 19:44 | 39.18251 | -76.66235 | 155 ft | 12 kts | 324° |
| 2026-05-04 19:44 | 39.18287 | -76.66310 | 156 ft | 8 kts | 258° |
| 2026-05-04 19:45 | 39.18261 | -76.66366 | 156 ft | 8 kts | 234° |
| 2026-05-04 19:45 | 39.18221 | -76.66440 | 156 ft | 12 kts | 235° |
| 2026-05-04 19:45 | 39.18168 | -76.66516 | 156 ft | 10 kts | 201° |
| 2026-05-04 19:45 | 39.18123 | -76.66505 | 156 ft | 2 kts | 160° |
| 2026-05-04 19:46 | 39.18121 | -76.66504 | 156 ft | 0 kts | 160° |
| 2026-05-04 19:46 | 39.18118 | -76.66502 | 156 ft | 0 kts | 160° |
| 2026-05-04 19:46 | 39.18117 | -76.66502 | 156 ft | 0 kts | 160° |